createdAt,value
2019-03-18T00:01:15.497Z,54.34
2019-03-18T00:03:46.891Z,54.11
2019-03-18T00:06:17.943Z,54.40
2019-03-18T00:08:49.887Z,54.84
2019-03-18T00:11:21.116Z,54.50
2019-03-18T00:13:52.341Z,54.71
2019-03-18T00:16:23.892Z,54.59
2019-03-18T00:18:54.935Z,55.11
2019-03-18T00:21:25.920Z,55.34
2019-03-18T00:23:57.857Z,55.12
2019-03-18T00:26:30.610Z,55.02
2019-03-18T00:29:02.462Z,55.38
2019-03-18T00:31:33.543Z,55.41
2019-03-18T00:34:04.621Z,54.94
2019-03-18T00:36:36.221Z,55.39
2019-03-18T00:39:09.397Z,55.61
2019-03-18T00:41:40.462Z,55.66
2019-03-18T00:44:11.804Z,55.63
2019-03-18T00:46:43.249Z,55.65
2019-03-18T00:49:14.545Z,55.96
2019-03-18T00:51:45.560Z,56.71
2019-03-18T00:54:16.529Z,56.69
2019-03-18T00:56:48.148Z,56.48
2019-03-18T00:59:20.993Z,56.51
2019-03-18T01:01:51.958Z,56.75
2019-03-18T01:04:22.947Z,56.79
2019-03-18T01:06:53.916Z,56.43
2019-03-18T01:09:25.187Z,56.26
2019-03-18T01:11:56.158Z,56.86
2019-03-18T01:14:27.793Z,56.50
2019-03-18T01:16:59.343Z,56.26
2019-03-18T01:19:30.313Z,56.21
2019-03-18T01:22:02.766Z,56.16
2019-03-18T01:24:34.086Z,56.22
2019-03-18T01:27:05.521Z,55.79
2019-03-18T01:29:36.510Z,55.92
2019-03-18T01:32:07.510Z,56.02
2019-03-18T01:34:38.987Z,56.20
2019-03-18T01:37:09.946Z,55.87
2019-03-18T01:39:41.444Z,55.70
2019-03-18T01:42:12.487Z,56.38
2019-03-18T01:44:43.711Z,56.25
2019-03-18T01:47:14.969Z,56.62
2019-03-18T01:49:46.162Z,56.76
2019-03-18T01:52:17.527Z,56.93
2019-03-18T01:54:48.510Z,56.90
2019-03-18T01:57:20.704Z,56.64
2019-03-18T01:59:52.783Z,57.17
2019-03-18T02:02:23.831Z,56.84
2019-03-18T02:04:55.275Z,57.16
2019-03-18T02:07:27.499Z,57.38
2019-03-18T02:10:00.815Z,57.57
2019-03-18T02:12:33.075Z,57.41
2019-03-18T02:15:18.823Z,57.50
2019-03-18T02:17:53.199Z,57.80
2019-03-18T02:20:24.430Z,58.13
2019-03-18T02:22:55.703Z,58.06
2019-03-18T02:25:26.673Z,57.75
2019-03-18T02:27:57.704Z,57.74
2019-03-18T02:30:29.079Z,57.16
2019-03-18T02:33:00.076Z,57.97
2019-03-18T02:35:31.079Z,57.97
2019-03-18T02:38:02.719Z,58.00
2019-03-18T02:40:34.006Z,58.22
2019-03-18T02:43:05.206Z,58.23
2019-03-18T02:45:36.493Z,57.90
2019-03-18T02:48:07.865Z,57.55
2019-03-18T02:50:38.870Z,57.76
2019-03-18T02:53:09.841Z,57.49
2019-03-18T02:55:41.059Z,57.66
2019-03-18T02:58:12.461Z,57.80
2019-03-18T03:00:43.517Z,57.73
2019-03-18T03:03:14.868Z,58.14
2019-03-18T03:05:45.889Z,58.14
2019-03-18T03:08:17.403Z,57.85
2019-03-18T03:10:48.475Z,58.25
2019-03-18T03:13:21.020Z,58.14
2019-03-18T03:15:52.085Z,58.22
2019-03-18T03:18:24.142Z,58.75
2019-03-18T03:20:55.205Z,58.46
2019-03-18T03:23:26.552Z,58.60
2019-03-18T03:25:57.610Z,57.98
2019-03-18T03:28:29.011Z,58.24
2019-03-18T03:31:00.247Z,58.77
2019-03-18T03:33:31.242Z,58.28
2019-03-18T03:36:02.902Z,58.56
2019-03-18T03:38:34.108Z,58.95
2019-03-18T03:43:36.790Z,58.64
2019-03-18T03:46:08.049Z,58.54
2019-03-18T03:48:39.051Z,58.52
2019-03-18T03:51:10.635Z,58.49
2019-03-18T03:53:41.859Z,58.04
2019-03-18T03:56:12.849Z,58.56
2019-03-18T03:58:44.231Z,58.53
2019-03-18T04:01:15.279Z,58.64
2019-03-18T04:03:46.837Z,58.67
2019-03-18T04:06:18.214Z,58.90
2019-03-18T04:08:49.782Z,58.51
2019-03-18T04:11:21.454Z,58.37
2019-03-18T04:13:53.391Z,58.83
2019-03-18T04:16:24.953Z,58.47
2019-03-18T04:18:56.736Z,59.03
2019-03-18T04:21:28.272Z,58.77
2019-03-18T04:23:59.586Z,58.66
2019-03-18T04:26:31.460Z,58.84
2019-03-18T04:29:03.033Z,58.74
2019-03-18T04:31:34.481Z,58.69
2019-03-18T04:34:05.922Z,58.47
2019-03-18T04:36:37.479Z,58.42
2019-03-18T04:39:09.111Z,58.63
2019-03-18T04:41:40.354Z,58.80
2019-03-18T04:44:11.860Z,59.38
2019-03-18T04:46:42.957Z,58.87
2019-03-18T04:49:14.226Z,58.75
2019-03-18T04:51:45.779Z,58.83
2019-03-18T04:54:17.002Z,58.74
2019-03-18T04:56:48.891Z,58.77
2019-03-18T04:59:21.156Z,58.51
2019-03-18T05:01:52.478Z,58.73
2019-03-18T05:04:23.944Z,58.47
2019-03-18T05:06:55.950Z,58.50
2019-03-18T05:09:28.057Z,58.96
2019-03-18T05:11:59.038Z,59.40
2019-03-18T05:14:30.067Z,59.17
2019-03-18T05:17:01.709Z,59.22
2019-03-18T05:19:33.518Z,59.32
2019-03-18T05:22:04.653Z,59.15
2019-03-18T05:24:35.735Z,59.30
2019-03-18T05:27:06.833Z,59.46
2019-03-18T05:29:38.668Z,59.51
2019-03-18T05:32:10.623Z,59.36
2019-03-18T05:34:42.583Z,59.31
2019-03-18T05:37:13.860Z,59.36
2019-03-18T05:39:45.084Z,59.00
2019-03-18T05:42:16.418Z,59.08
2019-03-18T05:44:47.814Z,59.04
2019-03-18T05:47:19.442Z,59.09
2019-03-18T05:49:53.690Z,59.29
2019-03-18T05:52:28.774Z,59.34
2019-03-18T05:55:00.056Z,59.14
2019-03-18T05:57:31.361Z,59.12
2019-03-18T06:00:03.248Z,59.67
2019-03-18T06:02:34.887Z,59.64
2019-03-18T06:05:07.433Z,59.86
2019-03-18T06:07:39.111Z,59.28
2019-03-18T06:10:11.111Z,59.52
2019-03-18T06:12:42.464Z,59.41
2019-03-18T06:15:13.707Z,59.15
2019-03-18T06:17:52.291Z,59.11
2019-03-18T06:20:17.628Z,59.11
2019-03-18T06:22:48.919Z,58.73
2019-03-18T06:25:21.403Z,58.73
2019-03-18T06:27:52.509Z,58.75
2019-03-18T06:30:23.550Z,58.50
2019-03-18T06:32:54.883Z,58.30
2019-03-18T06:35:26.203Z,58.04
2019-03-18T06:37:57.694Z,57.91
2019-03-18T06:40:29.010Z,57.45
2019-03-18T06:42:59.987Z,57.27
2019-03-18T06:45:31.594Z,57.18
2019-03-18T06:48:05.315Z,56.79
2019-03-18T06:50:37.024Z,56.77
2019-03-18T06:53:08.019Z,56.92
2019-03-18T06:55:39.316Z,56.79
2019-03-18T06:58:10.804Z,56.77
2019-03-18T07:00:41.773Z,56.82
2019-03-18T07:03:12.809Z,57.51
2019-03-18T07:05:46.086Z,57.22
2019-03-18T07:08:16.536Z,57.30
2019-03-18T07:10:47.882Z,57.36
2019-03-18T07:13:19.210Z,57.69
2019-03-18T07:15:50.670Z,57.23
2019-03-18T07:18:21.713Z,57.08
2019-03-18T07:20:53.240Z,56.82
2019-03-18T07:23:24.692Z,57.42
2019-03-18T07:25:55.660Z,57.13
2019-03-18T07:28:26.979Z,57.32
2019-03-18T07:30:58.251Z,57.25
2019-03-18T07:33:30.118Z,57.44
2019-03-18T07:36:01.746Z,57.41
2019-03-18T07:38:33.834Z,56.73
2019-03-18T07:41:05.279Z,57.40
2019-03-18T07:43:36.987Z,57.13
2019-03-18T07:46:08.289Z,57.31
2019-03-18T07:48:39.528Z,57.27
2019-03-18T07:51:10.581Z,57.22
2019-03-18T07:53:41.509Z,57.11
2019-03-18T07:56:12.482Z,57.69
2019-03-18T07:58:43.790Z,57.47
2019-03-18T08:01:15.205Z,58.10
2019-03-18T08:03:46.460Z,58.49
2019-03-18T08:06:17.745Z,58.06
2019-03-18T08:08:49.032Z,59.33
2019-03-18T08:11:20.499Z,61.97
2019-03-18T08:13:51.762Z,62.63
2019-03-18T08:16:23.107Z,63.61
2019-03-18T08:18:54.510Z,63.41
2019-03-18T08:21:26.290Z,64.59
2019-03-18T08:23:57.627Z,64.40
2019-03-18T08:26:29.265Z,64.73
2019-03-18T08:29:00.281Z,65.20
2019-03-18T08:31:31.243Z,65.78
2019-03-18T08:34:03.616Z,64.46
2019-03-18T08:36:35.248Z,65.60
2019-03-18T08:39:08.376Z,66.60
2019-03-18T08:41:39.985Z,65.91
2019-03-18T08:44:11.568Z,66.21
2019-03-18T08:46:42.733Z,65.00
2019-03-18T08:49:14.059Z,64.10
2019-03-18T08:51:45.544Z,62.71
2019-03-18T08:54:16.651Z,63.01
2019-03-18T08:56:47.685Z,63.87
2019-03-18T08:59:18.767Z,61.23
2019-03-18T09:01:50.312Z,60.02
2019-03-18T09:04:22.069Z,60.44
2019-03-18T09:06:53.358Z,60.69
2019-03-18T09:09:24.691Z,60.86
2019-03-18T09:11:55.667Z,61.29
2019-03-18T09:14:26.900Z,61.56
2019-03-18T09:16:57.961Z,59.87
2019-03-18T09:19:29.270Z,60.38
2019-03-18T09:22:00.607Z,60.71
2019-03-18T09:24:31.900Z,58.28
2019-03-18T09:27:04.095Z,57.83
2019-03-18T09:29:35.392Z,56.73
2019-03-18T09:32:06.446Z,57.15
2019-03-18T09:34:37.772Z,55.65
2019-03-18T09:37:09.343Z,56.53
2019-03-18T09:39:40.587Z,55.77
2019-03-18T09:42:11.630Z,57.62
2019-03-18T09:44:42.803Z,55.38
2019-03-18T09:47:14.427Z,55.00
2019-03-18T09:49:45.404Z,55.09
2019-03-18T09:52:16.370Z,54.82
2019-03-18T09:54:47.668Z,55.13
2019-03-18T09:57:26.005Z,52.52
2019-03-18T09:59:52.177Z,52.84
2019-03-18T10:02:23.259Z,52.71
2019-03-18T10:04:54.625Z,53.84
2019-03-18T10:07:25.848Z,52.18
2019-03-18T10:09:57.148Z,51.54
2019-03-18T10:12:28.647Z,52.86
2019-03-18T10:15:00.456Z,51.14
2019-03-18T10:17:31.837Z,51.24
2019-03-18T10:20:06.984Z,50.23
2019-03-18T10:22:38.424Z,49.86
2019-03-18T10:25:09.870Z,52.91
2019-03-18T10:27:40.945Z,51.16
2019-03-18T10:30:12.729Z,49.32
2019-03-18T10:32:44.302Z,49.50
2019-03-18T10:35:15.668Z,51.41
2019-03-18T10:37:46.712Z,50.32
2019-03-18T10:40:17.727Z,50.35
2019-03-18T10:42:48.835Z,48.17
2019-03-18T10:45:19.984Z,49.79
2019-03-18T10:47:51.019Z,50.65
2019-03-18T10:50:22.633Z,49.05
2019-03-18T10:52:54.374Z,48.31
2019-03-18T10:55:25.650Z,48.58
2019-03-18T10:57:56.863Z,47.79
2019-03-18T11:00:27.943Z,47.22
2019-03-18T11:02:59.494Z,48.09
2019-03-18T11:05:30.897Z,49.26
2019-03-18T11:08:01.886Z,47.45
2019-03-18T11:10:34.280Z,48.49
2019-03-18T11:13:05.671Z,48.60
2019-03-18T11:15:36.961Z,48.89
2019-03-18T11:18:08.423Z,49.18
2019-03-18T11:20:39.473Z,47.97
2019-03-18T11:23:10.523Z,47.91
2019-03-18T11:25:41.912Z,48.00
2019-03-18T11:28:13.702Z,46.75
2019-03-18T11:30:45.025Z,47.64
2019-03-18T11:33:16.168Z,47.08
2019-03-18T11:35:47.166Z,47.13
2019-03-18T11:38:18.147Z,46.16
2019-03-18T11:40:49.471Z,46.10
2019-03-18T11:43:20.936Z,45.31
2019-03-18T11:45:52.143Z,44.36
2019-03-18T11:48:23.153Z,45.64
2019-03-18T11:50:54.503Z,46.04
2019-03-18T11:53:25.745Z,43.55
2019-03-18T11:55:57.082Z,46.15
2019-03-18T11:58:28.270Z,44.83
2019-03-18T12:00:59.993Z,46.56
2019-03-18T12:03:30.973Z,46.78
2019-03-18T12:06:02.637Z,46.37
2019-03-18T12:08:34.203Z,44.30
2019-03-18T12:11:05.580Z,43.92
2019-03-18T12:13:37.015Z,42.54
2019-03-18T12:16:09.522Z,43.37
2019-03-18T12:18:40.868Z,43.60
2019-03-18T12:21:12.011Z,42.95
2019-03-18T12:23:43.067Z,42.71
2019-03-18T12:26:14.331Z,39.70
2019-03-18T12:28:45.569Z,42.42
2019-03-18T12:31:16.800Z,42.20
2019-03-18T12:33:48.072Z,41.22
2019-03-18T12:36:19.617Z,42.70
2019-03-18T12:38:51.158Z,43.82
2019-03-18T12:41:22.886Z,43.90
2019-03-18T12:43:54.623Z,43.45
2019-03-18T12:46:26.447Z,42.20
2019-03-18T12:48:57.489Z,40.78
2019-03-18T12:51:28.487Z,41.00
2019-03-18T12:54:00.026Z,41.07
2019-03-18T12:56:31.627Z,41.04
2019-03-18T12:59:02.865Z,43.10
2019-03-18T13:01:34.939Z,42.02
2019-03-18T13:04:06.337Z,43.01
2019-03-18T13:06:37.938Z,43.34
2019-03-18T13:09:09.977Z,43.85
2019-03-18T13:11:40.962Z,44.88
2019-03-18T13:14:11.963Z,43.93
2019-03-18T13:16:43.019Z,43.68
2019-03-18T13:19:14.091Z,43.87
2019-03-18T13:21:45.630Z,41.27
2019-03-18T13:24:16.667Z,41.95
2019-03-18T13:26:47.990Z,41.96
2019-03-18T13:29:19.763Z,42.92
2019-03-18T13:31:51.862Z,43.73
2019-03-18T13:34:22.860Z,44.10
2019-03-18T13:36:54.453Z,44.90
2019-03-18T13:39:25.598Z,45.87
2019-03-18T13:41:56.891Z,46.46
2019-03-18T13:44:27.866Z,46.42
2019-03-18T13:46:58.859Z,46.68
2019-03-18T13:49:30.845Z,46.04
2019-03-18T13:52:02.231Z,45.52
2019-03-18T13:54:35.156Z,46.55
2019-03-18T13:57:06.644Z,46.31
2019-03-18T13:59:37.684Z,46.57
2019-03-18T14:02:09.081Z,48.98
2019-03-18T14:04:40.633Z,52.93
2019-03-18T14:07:12.372Z,55.18
2019-03-18T14:09:43.340Z,56.81
2019-03-18T14:12:15.160Z,58.01
2019-03-18T14:14:46.137Z,59.71
2019-03-18T14:17:17.636Z,60.39
2019-03-18T14:19:49.484Z,60.33
2019-03-18T14:22:20.846Z,60.93
2019-03-18T14:24:52.082Z,60.75
2019-03-18T14:27:23.066Z,60.72
2019-03-18T14:29:54.120Z,61.28
2019-03-18T14:32:25.168Z,59.64
2019-03-18T14:34:56.146Z,59.69
2019-03-18T14:37:27.209Z,60.74
2019-03-18T14:39:58.832Z,60.23
2019-03-18T14:42:29.819Z,61.32
2019-03-18T14:45:01.344Z,59.46
2019-03-18T14:47:32.712Z,61.02
2019-03-18T14:50:06.720Z,58.72
2019-03-18T14:52:37.938Z,59.25
2019-03-18T14:55:10.336Z,58.32
2019-03-18T14:57:41.494Z,56.57
2019-03-18T15:00:16.956Z,56.57
2019-03-18T15:02:48.091Z,55.92
2019-03-18T15:05:19.281Z,55.16
2019-03-18T15:07:50.432Z,55.15
2019-03-18T15:10:22.663Z,54.04
2019-03-18T15:12:53.993Z,53.25
2019-03-18T15:15:25.018Z,53.37
2019-03-18T15:17:56.425Z,51.19
2019-03-18T15:20:27.595Z,51.58
2019-03-18T15:22:58.649Z,49.69
2019-03-18T15:25:29.662Z,50.36
2019-03-18T15:28:01.310Z,51.15
2019-03-18T15:30:32.460Z,51.52
2019-03-18T15:33:05.135Z,51.88
2019-03-18T15:35:36.187Z,50.83
2019-03-18T15:38:07.911Z,50.68
2019-03-18T15:40:39.358Z,50.88
2019-03-18T15:43:11.112Z,51.63
2019-03-18T15:45:42.102Z,51.42
2019-03-18T15:48:13.174Z,51.44
2019-03-18T15:50:44.868Z,50.46
2019-03-18T15:53:15.931Z,50.64
2019-03-18T15:55:47.044Z,50.87
2019-03-18T15:58:18.036Z,49.95
2019-03-18T16:00:49.614Z,50.69
2019-03-18T16:03:21.264Z,51.35
2019-03-18T16:05:52.595Z,50.35
2019-03-18T16:08:23.920Z,49.99
2019-03-18T16:10:54.927Z,50.15
2019-03-18T16:13:26.925Z,49.04
2019-03-18T16:15:58.244Z,50.03
2019-03-18T16:18:29.557Z,50.10
2019-03-18T16:21:00.982Z,50.91
2019-03-18T16:23:32.577Z,50.74
2019-03-18T16:26:04.926Z,50.52
2019-03-18T16:28:36.689Z,50.73
2019-03-18T16:31:08.158Z,49.08
2019-03-18T16:33:39.176Z,48.39
2019-03-18T16:36:10.394Z,49.21
2019-03-18T16:38:41.652Z,48.68
2019-03-18T16:41:12.881Z,48.53
2019-03-18T16:43:44.222Z,48.76
2019-03-18T16:46:15.888Z,47.97
2019-03-18T16:48:47.136Z,47.87
2019-03-18T16:51:18.207Z,48.31
2019-03-18T16:53:50.049Z,48.14
2019-03-18T16:56:21.359Z,49.14
2019-03-18T16:58:53.656Z,48.99
2019-03-18T17:01:24.946Z,49.07
2019-03-18T17:03:56.560Z,49.16
2019-03-18T17:06:28.108Z,49.29
2019-03-18T17:08:59.799Z,49.49
2019-03-18T17:11:30.800Z,49.41
2019-03-18T17:14:01.784Z,50.87
2019-03-18T17:16:32.774Z,52.31
2019-03-18T17:19:04.995Z,54.43
2019-03-18T17:21:36.748Z,56.04
2019-03-18T17:24:08.149Z,56.86
2019-03-18T17:26:40.025Z,57.29
2019-03-18T17:29:11.127Z,57.18
2019-03-18T17:31:42.518Z,57.02
2019-03-18T17:34:14.099Z,57.27
2019-03-18T17:36:45.551Z,56.77
2019-03-18T17:39:16.868Z,56.51
2019-03-18T17:41:48.430Z,56.80
2019-03-18T17:44:19.393Z,56.74
2019-03-18T17:46:51.017Z,56.26
2019-03-18T17:49:23.944Z,56.37
2019-03-18T17:51:55.239Z,55.98
2019-03-18T17:54:26.784Z,56.06
2019-03-18T17:57:07.113Z,56.05
2019-03-18T17:59:30.878Z,55.83
2019-03-18T18:02:01.870Z,55.92
2019-03-18T18:04:32.842Z,55.28
2019-03-18T18:07:05.436Z,55.37
2019-03-18T18:09:36.742Z,55.04
2019-03-18T18:12:09.602Z,55.07
2019-03-18T18:14:40.665Z,55.64
2019-03-18T18:17:11.913Z,55.54
2019-03-18T18:19:42.879Z,56.04
2019-03-18T18:22:13.905Z,56.87
2019-03-18T18:24:45.752Z,57.08
2019-03-18T18:27:19.169Z,57.69
2019-03-18T18:29:50.202Z,57.18
2019-03-18T18:32:21.565Z,57.36
2019-03-18T18:34:52.862Z,57.44
2019-03-18T18:37:23.926Z,57.29
2019-03-18T18:39:55.975Z,57.29
2019-03-18T18:42:27.046Z,57.47
2019-03-18T18:44:58.379Z,57.71
2019-03-18T18:47:30.034Z,57.82
2019-03-18T18:50:01.487Z,58.25
2019-03-18T18:52:32.555Z,58.51
2019-03-18T18:55:03.571Z,58.60
2019-03-18T18:57:35.639Z,58.90
2019-03-18T19:00:09.029Z,58.48
2019-03-18T19:02:42.211Z,58.22
2019-03-18T19:05:14.049Z,57.78
2019-03-18T19:07:45.344Z,57.68
2019-03-18T19:10:16.608Z,58.28
2019-03-18T19:12:47.754Z,58.17
2019-03-18T19:15:20.668Z,58.80
2019-03-18T19:17:51.805Z,58.91
2019-03-18T19:20:24.295Z,59.37
2019-03-18T19:22:55.972Z,59.52
2019-03-18T19:25:27.016Z,59.20
2019-03-18T19:27:58.096Z,59.29
2019-03-18T19:30:29.143Z,59.51
2019-03-18T19:33:00.276Z,59.08
2019-03-18T19:35:31.601Z,59.63
2019-03-18T19:38:02.665Z,59.83
2019-03-18T19:40:33.952Z,59.71
2019-03-18T19:43:05.531Z,59.64
2019-03-18T19:45:36.502Z,59.79
2019-03-18T19:48:07.854Z,60.63
2019-03-18T19:50:39.266Z,60.44
2019-03-18T19:53:10.246Z,59.83
2019-03-18T19:55:41.869Z,59.51
2019-03-18T19:58:13.223Z,59.62
2019-03-18T20:00:44.204Z,59.46
2019-03-18T20:03:15.261Z,59.41
2019-03-18T20:05:46.873Z,59.34
2019-03-18T20:08:18.516Z,59.73
2019-03-18T20:10:50.204Z,60.00
2019-03-18T20:13:21.250Z,60.07
2019-03-18T20:15:52.629Z,59.95
2019-03-18T20:18:23.639Z,60.18
2019-03-18T20:20:56.988Z,59.74
2019-03-18T20:23:27.714Z,60.11
2019-03-18T20:25:59.095Z,60.07
2019-03-18T20:28:30.468Z,59.82
2019-03-18T20:31:01.535Z,59.85
2019-03-18T20:33:32.830Z,59.98
2019-03-18T20:36:03.868Z,60.10
2019-03-18T20:38:35.572Z,60.36
2019-03-18T20:41:06.548Z,60.03
2019-03-18T20:43:37.941Z,60.04
2019-03-18T20:46:08.903Z,60.25
2019-03-18T20:48:40.377Z,59.97
2019-03-18T20:51:11.354Z,59.76
2019-03-18T20:53:42.338Z,59.83
2019-03-18T20:56:13.349Z,60.08
2019-03-18T20:58:44.629Z,60.26
2019-03-18T21:01:15.711Z,60.24
2019-03-18T21:03:46.770Z,59.85
2019-03-18T21:06:18.134Z,60.51
2019-03-18T21:08:49.110Z,60.65
2019-03-18T21:11:20.201Z,60.83
2019-03-18T21:13:57.137Z,60.70
2019-03-18T21:16:24.314Z,60.79
2019-03-18T21:18:55.361Z,60.77
2019-03-18T21:21:26.337Z,60.64
2019-03-18T21:23:57.739Z,61.00
2019-03-18T21:26:28.903Z,60.85
2019-03-18T21:29:12.442Z,60.55
2019-03-18T21:31:43.772Z,60.31
2019-03-18T21:34:14.735Z,60.38
2019-03-18T21:36:46.252Z,60.21
2019-03-18T21:39:18.182Z,60.41
2019-03-18T21:41:49.132Z,60.24
2019-03-18T21:44:20.500Z,60.22
2019-03-18T21:46:51.755Z,60.57
2019-03-18T21:49:24.566Z,61.17
2019-03-18T21:51:55.808Z,61.33
2019-03-18T21:54:33.995Z,61.15
2019-03-18T21:56:59.512Z,61.16
2019-03-18T21:59:31.058Z,61.16
2019-03-18T22:02:02.631Z,60.59
2019-03-18T22:04:33.587Z,60.64
2019-03-18T22:07:05.947Z,60.52
2019-03-18T22:09:37.575Z,61.11
2019-03-18T22:12:09.783Z,60.80
2019-03-18T22:14:41.238Z,60.67
2019-03-18T22:17:12.196Z,61.06
2019-03-18T22:19:44.165Z,60.91
2019-03-18T22:22:15.203Z,60.73
2019-03-18T22:24:46.497Z,60.64
2019-03-18T22:27:18.273Z,60.51
2019-03-18T22:29:49.594Z,60.65
2019-03-18T22:32:20.841Z,60.30
2019-03-18T22:34:52.735Z,60.42
2019-03-18T22:37:24.686Z,60.24
2019-03-18T22:39:56.049Z,60.74
2019-03-18T22:42:27.282Z,59.89
2019-03-18T22:44:59.008Z,59.42
2019-03-18T22:47:29.978Z,59.73
2019-03-18T22:50:02.310Z,59.88
2019-03-18T22:52:33.548Z,60.15
2019-03-18T22:55:08.038Z,59.93
2019-03-18T22:57:40.886Z,60.66
2019-03-18T23:00:21.463Z,60.33
2019-03-18T23:02:54.373Z,60.56
2019-03-18T23:05:25.610Z,60.83
2019-03-18T23:07:57.052Z,61.18
2019-03-18T23:10:28.330Z,60.65
2019-03-18T23:12:59.302Z,60.97
2019-03-18T23:15:32.480Z,60.52
2019-03-18T23:18:03.546Z,60.85
2019-03-18T23:20:34.900Z,60.56
2019-03-18T23:23:06.061Z,60.07
2019-03-18T23:25:37.111Z,59.65
2019-03-18T23:28:08.759Z,59.80
2019-03-18T23:30:40.095Z,60.00
2019-03-18T23:33:11.054Z,60.16
2019-03-18T23:35:42.378Z,59.71
2019-03-18T23:38:14.261Z,60.40
2019-03-18T23:40:45.717Z,60.16
2019-03-18T23:43:17.026Z,60.26
2019-03-18T23:45:48.267Z,60.69
2019-03-18T23:48:19.427Z,61.07
2019-03-18T23:50:50.482Z,61.24
2019-03-18T23:53:22.114Z,61.79
2019-03-18T23:55:53.329Z,61.30
2019-03-18T23:58:25.615Z,60.83
